Time;durP1;ratioP1;P1;durP2;ratioP2;P2;SDS_P1;SDS_P2;PMS_P1;PMS_P2;Temp;Humidity;BMP_temperature;BMP_pressure;BME280_temperature;BME280_humidity;BME280_pressure;Samples;Min_cycle;Max_cycle;Signal;HPM_P1;HPM_P2
2023/04/22 00:05:46;;;;;;;1.55;1.40;;;;;;;20.39;54.10;100629.59;19891507;29;20414;-59
2023/04/22 00:15:48;;;;;;;1.65;1.38;;;;;;;20.37;54.33;100630.75;19883786;29;20042;-59
2023/04/22 00:25:50;;;;;;;2.22;1.50;;;;;;;20.34;54.11;100631.94;19886275;29;20507;-58
2023/04/22 00:35:53;;;;;;;1.40;1.30;;;;;;;20.34;53.95;100621.13;19875691;29;20134;-58
2023/04/22 00:45:56;;;;;;;;;;;;;;;20.31;53.90;100607.06;19880162;29;20059;-58
2023/04/22 00:55:58;;;;;;;1.20;1.10;;;;;;;20.26;53.85;100613.78;19890481;29;20020;-58
2023/04/22 01:06:00;;;;;;;0.90;0.90;;;;;;;20.24;53.66;100591.50;19883371;29;20134;-58
2023/04/22 01:16:02;;;;;;;1.20;1.10;;;;;;;20.23;53.57;100580.81;19878274;29;20104;-59
2023/04/22 01:26:04;;;;;;;1.00;0.90;;;;;;;20.23;53.52;100567.31;19883862;29;20082;-59
2023/04/22 01:36:07;;;;;;;1.08;0.90;;;;;;;20.20;53.21;100570.31;19891896;29;20054;-59
2023/04/22 01:46:10;;;;;;;1.00;0.90;;;;;;;20.19;53.14;100566.78;19878842;29;20059;-59
2023/04/22 01:56:12;;;;;;;1.20;1.10;;;;;;;20.17;53.20;100565.25;19882733;29;20050;-59
2023/04/22 02:06:14;;;;;;;0.93;0.93;;;;;;;20.14;53.36;100551.03;19877290;29;20107;-59
2023/04/22 02:16:16;;;;;;;1.00;0.90;;;;;;;20.16;52.89;100552.75;19871626;29;20135;-59
2023/04/22 02:26:18;;;;;;;0.80;0.80;;;;;;;20.19;52.88;100544.31;19872149;29;20069;-59
2023/04/22 02:36:19;;;;;;;0.75;0.75;;;;;;;19.94;52.64;100490.16;19887329;29;20104;-59
2023/04/22 02:46:22;;;;;;;0.73;0.73;;;;;;;20.24;52.65;100525.75;19875181;29;20061;-59
2023/04/22 02:56:25;;;;;;;0.50;0.50;;;;;;;20.24;52.51;100521.22;19873982;29;20097;-59
2023/04/22 03:06:27;;;;;;;0.70;0.60;;;;;;;20.23;52.10;100515.94;19873614;29;20473;-59
2023/04/22 03:16:29;;;;;;;0.60;0.60;;;;;;;20.22;51.91;100506.16;19872519;29;20074;-59
2023/04/22 03:26:36;;;;;;;0.98;0.60;;;;;;;20.22;51.78;100498.03;19885450;29;20086;-59
2023/04/22 03:36:38;;;;;;;0.60;0.60;;;;;;;20.18;51.63;100491.25;19897562;29;20488;-59
2023/04/22 03:46:40;;;;;;;0.63;0.63;;;;;;;20.18;51.30;100488.56;19900544;29;20544;-59
2023/04/22 03:56:55;;;;;;;0.60;0.60;;;;;;;20.13;51.06;100478.25;19892043;29;20062;-59
2023/04/22 04:06:59;;;;;;;0.57;0.57;;;;;;;20.07;50.88;100465.38;19899377;29;20127;-59
2023/04/22 04:17:02;;;;;;;0.50;0.50;;;;;;;20.00;50.80;100459.78;19888991;29;20063;-59
2023/04/22 04:27:07;;;;;;;0.70;0.65;;;;;;;19.97;50.47;100460.09;19894433;29;20560;-59
2023/04/22 04:37:17;;;;;;;0.70;0.70;;;;;;;19.92;50.44;100440.81;19889562;29;20137;-59
2023/04/22 04:47:32;;;;;;;0.80;0.80;;;;;;;19.89;50.12;100444.66;19893049;29;20047;-59
2023/04/22 04:57:45;;;;;;;2.10;1.00;;;;;;;19.86;49.98;100439.56;19891110;29;20059;-58
2023/04/22 05:07:50;;;;;;;0.80;0.80;;;;;;;19.83;50.00;100445.31;19892210;29;20553;-59
2023/04/22 05:17:52;;;;;;;0.77;0.70;;;;;;;19.80;49.95;100446.44;19892556;29;20089;-59
2023/04/22 05:27:54;;;;;;;0.60;0.60;;;;;;;19.78;50.19;100461.16;19879435;29;20065;-59
2023/04/22 05:37:59;;;;;;;0.83;0.83;;;;;;;19.75;50.47;100448.78;19889581;29;20069;-59
2023/04/22 05:48:01;;;;;;;0.93;0.90;;;;;;;19.67;50.69;100443.34;19884304;29;20051;-59
2023/04/22 05:58:08;;;;;;;1.20;1.10;;;;;;;19.73;50.87;100455.38;19888637;29;20059;-59
2023/04/22 06:08:20;;;;;;;0.88;0.88;;;;;;;19.71;51.07;100453.69;19889380;29;20051;-59
2023/04/22 06:18:24;;;;;;;1.05;1.02;;;;;;;19.72;51.40;100457.22;19889999;29;20074;-59
2023/04/22 06:28:29;;;;;;;1.25;1.15;;;;;;;19.72;51.85;100443.72;19885978;29;20054;-59
2023/04/22 06:38:34;;;;;;;1.40;1.30;;;;;;;19.73;51.99;100450.81;19883446;29;20449;-59
2023/04/22 06:48:57;;;;;;;1.00;1.00;;;;;;;19.72;52.13;100435.59;19872869;29;20042;-59
2023/04/22 06:59:18;;;;;;;1.10;1.08;;;;;;;19.72;52.59;100432.91;19882534;29;20063;-59
2023/04/22 07:09:20;;;;;;;1.30;1.20;;;;;;;19.74;52.58;100432.75;19885305;29;20055;-59
2023/04/22 07:19:23;;;;;;;1.27;1.17;;;;;;;19.74;52.80;100436.28;19876088;29;20492;-59
2023/04/22 07:29:24;;;;;;;2.00;1.77;;;;;;;19.81;53.38;100431.94;19896121;29;20059;-59
2023/04/22 07:39:26;;;;;;;4.05;2.20;;;;;;;19.85;53.72;100427.91;19890933;29;20051;-59
2023/04/22 07:49:28;;;;;;;2.42;2.03;;;;;;;19.90;54.04;100426.59;19857884;29;20421;-59
2023/04/22 07:59:30;;;;;;;2.15;1.90;;;;;;;19.98;54.00;100424.81;19879717;29;20063;-59
2023/04/22 08:09:31;;;;;;;1.70;1.60;;;;;;;20.06;54.15;100410.50;19882427;29;20068;-59
2023/04/22 08:19:33;;;;;;;2.78;1.58;;;;;;;20.18;54.80;100404.78;19876198;29;20085;-59
2023/04/22 08:29:36;;;;;;;1.70;1.60;;;;;;;20.33;55.10;100392.34;19874779;29;20082;-59
2023/04/22 08:39:38;;;;;;;3.00;1.70;;;;;;;20.47;55.64;100395.41;19875220;29;20063;-59
2023/04/22 08:49:41;;;;;;;1.35;1.20;;;;;;;20.65;56.45;100392.56;19888311;29;20050;-59
2023/04/22 08:59:43;;;;;;;2.78;1.52;;;;;;;20.70;56.91;100382.09;19895529;29;20166;-59
2023/04/22 09:09:45;;;;;;;2.90;1.40;;;;;;;20.90;57.23;100371.81;19891967;29;20058;-59
2023/04/22 09:19:58;;;;;;;1.92;1.52;;;;;;;21.17;56.63;100377.88;19884900;29;20055;-59
2023/04/22 09:30:07;;;;;;;3.17;1.60;;;;;;;21.36;56.18;100363.13;19886853;29;20054;-59
2023/04/22 09:40:14;;;;;;;2.38;1.60;;;;;;;21.41;55.77;100358.03;19887076;29;20102;-59
2023/04/22 09:50:19;;;;;;;2.25;1.50;;;;;;;21.46;55.45;100344.00;19883167;29;20408;-59
2023/04/22 10:00:25;;;;;;;2.75;1.55;;;;;;;21.48;55.11;100331.13;19892398;29;20147;-58
2023/04/22 10:10:28;;;;;;;1.63;1.52;;;;;;;21.51;55.05;100322.66;19890043;29;20133;-59
2023/04/22 10:20:30;;;;;;;1.85;1.70;;;;;;;21.48;54.70;100309.44;19890654;29;20063;-59
2023/04/22 10:30:35;;;;;;;1.67;1.52;;;;;;;21.50;54.77;100312.00;19884122;29;21767;-59
2023/04/22 10:40:57;;;;;;;1.75;1.55;;;;;;;21.51;54.76;100308.28;19871665;29;20059;-59
2023/04/22 10:50:59;;;;;;;1.67;1.30;;;;;;;21.50;54.56;100296.59;19902155;29;20504;-58
2023/04/22 11:01:13;;;;;;;1.45;1.35;;;;;;;21.52;54.38;100291.84;19901268;29;20062;-59
2023/04/22 11:11:18;;;;;;;1.85;1.65;;;;;;;21.50;54.58;100285.75;19878960;29;20133;-59
2023/04/22 11:21:20;;;;;;;2.38;1.80;;;;;;;21.50;54.44;100269.50;19886249;29;20070;-59
2023/04/22 11:31:22;;;;;;;1.50;1.40;;;;;;;21.56;54.50;100266.09;19885535;29;20055;-59
2023/04/22 11:41:24;;;;;;;1.60;1.50;;;;;;;21.59;54.66;100263.03;19880607;29;20054;-59
2023/04/22 11:51:26;;;;;;;2.17;1.85;;;;;;;21.59;54.52;100257.59;19875241;29;20419;-59
2023/04/22 12:01:28;;;;;;;1.60;1.42;;;;;;;21.58;54.32;100266.75;19877379;29;20143;-59
2023/04/22 12:11:30;;;;;;;1.30;1.20;;;;;;;21.53;53.30;100263.72;19890308;29;20530;-60
2023/04/22 12:21:32;;;;;;;1.60;1.50;;;;;;;21.52;52.86;100255.78;19899067;29;20042;-59
2023/04/22 12:31:34;;;;;;;1.75;1.50;;;;;;;21.50;52.53;100242.41;19898221;29;20547;-59
2023/04/22 12:41:36;;;;;;;1.65;1.52;;;;;;;21.42;52.46;100245.16;19882276;29;20101;-58
2023/04/22 12:51:38;;;;;;;1.65;1.35;;;;;;;21.43;52.30;100236.88;19894589;29;20055;-59
2023/04/22 13:01:39;;;;;;;1.40;1.30;;;;;;;21.41;52.18;100235.34;19886931;29;20055;-58
2023/04/22 13:11:41;;;;;;;2.30;1.73;;;;;;;21.40;52.32;100209.31;19883939;29;20121;-58
2023/04/22 13:21:43;;;;;;;1.80;1.60;;;;;;;21.37;52.44;100188.81;19887678;29;20058;-58
2023/04/22 13:31:45;;;;;;;2.42;1.73;;;;;;;21.37;52.39;100182.59;19892691;29;20393;-58
2023/04/22 13:41:47;;;;;;;1.52;1.42;;;;;;;21.33;52.47;100165.00;19891104;29;20059;-58
2023/04/22 13:51:49;;;;;;;2.15;1.70;;;;;;;21.25;52.43;100157.75;19889282;29;20063;-59
2023/04/22 14:01:51;;;;;;;2.15;1.85;;;;;;;21.11;52.75;100162.03;19887603;29;20090;-59
2023/04/22 14:11:53;;;;;;;1.65;1.50;;;;;;;20.98;53.88;100144.53;19880297;29;20501;-59
2023/04/22 14:21:55;;;;;;;2.13;1.60;;;;;;;21.00;54.24;100152.47;19882286;29;20046;-59
2023/04/22 14:31:57;;;;;;;1.95;1.80;;;;;;;21.00;54.81;100128.94;19866514;29;20133;-59
2023/04/22 14:41:59;;;;;;;2.60;2.40;;;;;;;21.05;55.02;100133.00;19868629;29;20061;-61
2023/04/22 14:52:01;;;;;;;4.80;2.20;;;;;;;21.09;55.02;100128.91;19867644;29;20080;-60
2023/04/22 15:02:04;;;;;;;3.45;1.90;;;;;;;21.16;56.01;100119.06;19868130;29;20406;-60
2023/04/22 15:12:06;;;;;;;5.20;2.50;;;;;;;21.23;56.60;100121.91;19852037;29;20090;-62
2023/04/22 15:22:08;;;;;;;5.93;3.00;;;;;;;21.31;59.13;100135.38;19841536;29;20120;-60
2023/04/22 15:32:09;;;;;;;5.65;2.80;;;;;;;21.35;60.02;100163.78;19851558;29;20561;-60
2023/04/22 15:42:11;;;;;;;4.50;2.90;;;;;;;21.36;60.09;100180.91;19845509;29;20113;-60
2023/04/22 15:52:13;;;;;;;3.00;2.33;;;;;;;21.32;60.41;100212.06;19880417;29;20058;-60
2023/04/22 16:02:16;;;;;;;4.40;2.40;;;;;;;21.30;60.65;100210.38;19876597;29;20586;-59
2023/04/22 16:12:20;;;;;;;3.50;2.15;;;;;;;21.30;60.96;100231.16;19878325;29;20424;-59
2023/04/22 16:22:21;;;;;;;3.37;2.30;;;;;;;21.25;61.43;100220.88;19846694;29;20457;-59
2023/04/22 16:32:23;;;;;;;4.60;2.47;;;;;;;21.25;61.53;100220.88;19849456;29;20059;-59
2023/04/22 16:42:26;;;;;;;3.92;2.80;;;;;;;21.24;61.31;100226.47;19878353;29;20059;-59
2023/04/22 16:52:28;;;;;;;2.88;2.38;;;;;;;21.20;61.36;100231.38;19879677;29;20049;-59
2023/04/22 17:02:29;;;;;;;5.60;2.58;;;;;;;21.18;61.47;100228.00;19868562;29;20055;-59
2023/04/22 17:12:31;;;;;;;2.85;2.28;;;;;;;21.16;61.59;100235.44;19865168;29;20130;-59
2023/04/22 17:22:36;;;;;;;3.13;2.10;;;;;;;21.13;61.75;100224.97;19856397;29;20198;-59
2023/04/22 17:32:38;;;;;;;3.35;2.63;;;;;;;21.04;61.94;100226.88;19873069;29;20054;-59
2023/04/22 17:42:39;;;;;;;2.33;2.13;;;;;;;21.10;61.53;100237.00;19867802;29;20050;-60
2023/04/22 17:52:49;;;;;;;2.38;2.15;;;;;;;21.03;61.18;100241.41;19872976;29;20055;-59
2023/04/22 18:02:52;;;;;;;2.53;2.17;;;;;;;20.98;61.02;100252.75;19868928;29;20116;-60
2023/04/22 18:12:54;;;;;;;3.30;2.35;;;;;;;20.94;60.83;100247.84;19865435;29;20054;-60
2023/04/22 18:22:56;;;;;;;3.00;2.53;;;;;;;20.89;61.01;100251.09;19869584;29;20058;-60
2023/04/22 18:32:58;;;;;;;3.67;2.45;;;;;;;20.87;61.04;100266.66;19883978;29;20066;-59
2023/04/22 18:43:00;;;;;;;2.28;2.00;;;;;;;20.85;60.74;100279.50;19884558;29;20055;-59
2023/04/22 18:53:02;;;;;;;4.55;2.88;;;;;;;20.82;60.81;100277.16;19882911;29;20078;-59
2023/04/22 19:03:04;;;;;;;4.30;2.55;;;;;;;20.79;60.86;100282.91;19882634;29;20138;-59
2023/04/22 19:13:06;;;;;;;2.85;2.58;;;;;;;20.78;60.89;100300.13;19880771;29;20133;-59
2023/04/22 19:23:19;;;;;;;3.03;2.25;;;;;;;20.73;60.99;100298.72;19882560;29;20050;-60
2023/04/22 19:33:21;;;;;;;2.63;2.20;;;;;;;20.71;60.73;100308.06;19883193;29;20055;-59
2023/04/22 19:43:23;;;;;;;2.88;2.30;;;;;;;20.65;60.78;100323.09;19882069;29;20046;-59
2023/04/22 19:53:25;;;;;;;2.45;2.05;;;;;;;20.70;60.55;100342.34;19879467;29;20108;-59
2023/04/22 20:03:27;;;;;;;2.28;2.05;;;;;;;20.68;60.29;100355.19;19879847;29;20087;-59
2023/04/22 20:13:30;;;;;;;5.53;3.17;;;;;;;20.73;63.73;100362.81;19894570;29;20053;-59
2023/04/22 20:23:32;;;;;;;5.45;3.30;;;;;;;20.72;64.54;100356.56;19897553;29;20224;-59
2023/04/22 20:33:34;;;;;;;3.17;2.60;;;;;;;20.70;63.99;100358.59;19892089;29;20109;-59
2023/04/22 20:43:36;;;;;;;3.88;2.58;;;;;;;20.66;62.85;100351.00;19894592;29;20051;-59
2023/04/22 20:53:38;;;;;;;2.78;2.03;;;;;;;20.71;62.11;100370.25;19891567;29;20051;-59
2023/04/22 21:03:40;;;;;;;2.80;2.17;;;;;;;20.69;61.44;100383.94;19891742;29;20449;-60
2023/04/22 21:13:43;;;;;;;3.05;2.25;;;;;;;20.67;60.88;100396.78;19890053;29;20051;-59
2023/04/22 21:23:46;;;;;;;2.70;2.10;;;;;;;20.67;60.46;100398.66;19886935;29;20127;-59
2023/04/22 21:33:47;;;;;;;2.70;1.90;;;;;;;20.64;59.91;100402.53;19887635;29;20101;-59
2023/04/22 21:43:49;;;;;;;2.00;1.67;;;;;;;20.63;59.48;100398.13;19891264;29;20073;-59
2023/04/22 21:53:51;;;;;;;2.10;1.95;;;;;;;20.60;58.87;100403.88;19900653;29;20111;-59
2023/04/22 22:03:53;;;;;;;2.78;2.20;;;;;;;20.58;58.45;100405.91;19887520;29;20469;-60
2023/04/22 22:13:55;;;;;;;1.52;1.42;;;;;;;20.53;58.05;100413.66;19886828;29;20051;-60
2023/04/22 22:23:57;;;;;;;1.48;1.20;;;;;;;20.49;57.78;100417.72;19884562;29;20115;-60
2023/04/22 22:33:59;;;;;;;2.03;1.35;;;;;;;20.47;57.29;100425.97;19884554;29;20142;-59
2023/04/22 22:44:01;;;;;;;1.20;1.10;;;;;;;20.44;56.94;100442.53;19882031;29;20051;-60
2023/04/22 22:54:03;;;;;;;1.70;1.55;;;;;;;20.40;56.46;100447.44;19883935;29;20068;-60
2023/04/22 23:04:05;;;;;;;1.50;1.40;;;;;;;20.38;56.40;100441.34;19883025;29;20069;-60
2023/04/22 23:14:08;;;;;;;2.42;1.73;;;;;;;20.34;55.90;100450.81;19881603;29;20132;-59
2023/04/22 23:24:13;;;;;;;1.80;1.70;;;;;;;20.34;55.70;100436.44;19881213;29;20097;-59
2023/04/22 23:34:15;;;;;;;1.77;1.38;;;;;;;20.30;55.53;100438.59;19878465;29;20055;-60
2023/04/22 23:44:17;;;;;;;2.20;2.00;;;;;;;20.29;55.46;100439.63;19887989;29;20116;-59
2023/04/22 23:54:20;;;;;;;2.20;1.75;;;;;;;20.27;55.23;100441.63;19895041;29;20201;-60
